Accueil
METAR-TAF:

METAR-TAF

Aéroports :

Athens, Ohio, États-Unis

latitude: 39-12-43N, longitude: 082-13-45W, altitude: 233 m

Observation

Le bulletin a été fait il y a 24 minutes, à 19:15 UTC
Vent 9 kt de sud-ouest avec des rafales jusqu'à 15 kt
Température 31°C
Humidité 55%
Pression 1009 hPa
Visibilité: 16.1 km
Nuages épars à une hauteur de 4000 ft
Nuages épars à une hauteur de 7500 ft

METAR: KUNI 101915Z AUTO 23009G15KT 10SM SCT040 SCT075 31/21 A2981 RMK AO2 LTG DSNT ALQS T03050209

Heure: 15:39 (19:39 UTC)


TAF: absent

Observations et prévisions météorologiques de plus de 4000 aéroports (messages METAR et TAF).

Les stations disponibles sont représentées par des disques jaunes et rouges sur la carte.

Passer la souris dessus pour voir le nom de la station.

Cliquer dessus pour voir les observations et prévisions météorologiques.

Pour changer de carte: cliquez sur les boutons verts avec une croix noire pour zoomer, sur le bouton vert avec un tiret pour effectuer un zoom arrière, ou sur les flèches vertes pour les cartes adjacentes.


METAR-TAF: